KAKH/AKH METAR and TAF weather

Enter ICAO airport designator
Station Type Date Time Source
KAKH METAR 2022/06/30 14:33 UTC NOAA

KAKH 301433Z AUTO 18004KT 10SM BKN021 26/21 A3025 RMK AO2 T02610211


Station Type Date Time Source
KAKH Decoded METAR 2022/06/30 14:33 UTC NOAA

GASTONIA MUNICIPAL AIRPORT, NC, United States (KAKH) 35-12N 81-09W 243M
Jun 30, 2022 - 10:33 AM EDT / 2022.06.30 1433 UTC
Wind: from the S (180 degrees) at 5 MPH (4 KT):0
Visibility: 10 mile(s):0
Sky conditions: mostly cloudy
Temperature: 79.0 F (26.1 C)
Dew Point: 70.0 F (21.1 C)
Relative Humidity: 73%
Pressure (altimeter): 30.25 in. Hg (1024 hPa)
ob: KAKH 301433Z AUTO 18004KT 10SM BKN021 26/21 A3025 RMK AO2 T02610211
cycle: 14

Station Type Date Time Source
KAKH TAF UTC NOAA

Error!

Example: see airport list